FAOR/JNB METAR and TAF weather

Enter ICAO airport designator
Station Type Date Time Source
FAOR METAR 2018/12/13 15:30 UTC NOAA

FAOR 131530Z 22011KT 190V250 CAVOK 31/M04 Q1023 NOSIG


Station Type Date Time Source
FAOR Decoded METAR 2018/12/13 15:30 UTC NOAA

Station name not available
Dec 13, 2018 - 10:30 AM EST / 2018.12.13 1530 UTC
Wind: from the SW (220 degrees) at 13 MPH (11 KT) (direction variable):0
Visibility: greater than 7 mile(s):0
Temperature: 87 F (31 C)
Dew Point: 24 F (-4 C)
Relative Humidity: 10%
Pressure (altimeter): 30.21 in. Hg (1023 hPa)
ob: FAOR 131530Z 22011KT 190V250 CAVOK 31/M04 Q1023 NOSIG
cycle: 15

Station Type Date Time Source
FAOR TAF 2018/12/13 12:10 UTC NOAA

TAF
AMD FAOR 131110Z 1312/1418 22008KT CAVOK PROB30
TEMPO 1313/1317 FEW080TCU
BECMG 1316/1318 03013KT PROB30
TEMPO 1403/1407 BKN013
BECMG 1408/1410 32012KT
BECMG 1414/1416 02013KT SCT035 PROB30
TEMPO 1417/1418 -TSRA FEW040CB TX31/1313Z TN20/1403Z


Example: see airport list